sensor_id;sensor_type;location;lat;lon;timestamp;pressure;altitude;pressure_sealevel;temperature;humidity
35694;BME280;21812;55.536;37.664;2023-10-09T00:02:24;97194.16;;;4.66;71.73
35694;BME280;21812;55.536;37.664;2023-10-09T00:04:50;97194.31;;;4.71;70.46
35694;BME280;21812;55.536;37.664;2023-10-09T00:07:17;97200.50;;;4.90;71.44
35694;BME280;21812;55.536;37.664;2023-10-09T00:09:43;97202.00;;;5.04;71.87
35694;BME280;21812;55.536;37.664;2023-10-09T00:12:21;97215.72;;;5.20;69.83
35694;BME280;21812;55.536;37.664;2023-10-09T00:14:51;97179.72;;;4.68;70.03
35694;BME280;21812;55.536;37.664;2023-10-09T00:17:21;97219.91;;;5.02;74.93
35694;BME280;21812;55.536;37.664;2023-10-09T00:19:49;97215.09;;;5.43;75.96
35694;BME280;21812;55.536;37.664;2023-10-09T00:22:17;97230.50;;;5.53;72.07
35694;BME280;21812;55.536;37.664;2023-10-09T00:24:49;97237.38;;;5.35;69.12
35694;BME280;21812;55.536;37.664;2023-10-09T00:27:16;97231.75;;;5.25;69.11
35694;BME280;21812;55.536;37.664;2023-10-09T00:29:47;97236.75;;;4.83;69.14
35694;BME280;21812;55.536;37.664;2023-10-09T00:32:15;97253.88;;;4.74;72.08
35694;BME280;21812;55.536;37.664;2023-10-09T00:34:55;97252.22;;;4.79;74.04
35694;BME280;21812;55.536;37.664;2023-10-09T00:37:41;97255.38;;;4.95;74.60
35694;BME280;21812;55.536;37.664;2023-10-09T00:40:07;97256.25;;;5.14;75.40
35694;BME280;21812;55.536;37.664;2023-10-09T00:42:46;97254.59;;;5.19;71.84
35694;BME280;21812;55.536;37.664;2023-10-09T00:45:15;97253.78;;;4.94;70.97
35694;BME280;21812;55.536;37.664;2023-10-09T00:47:52;97281.41;;;4.98;74.56
35694;BME280;21812;55.536;37.664;2023-10-09T00:50:22;97271.25;;;4.95;75.01
35694;BME280;21812;55.536;37.664;2023-10-09T00:52:52;97266.00;;;4.88;71.43
35694;BME280;21812;55.536;37.664;2023-10-09T00:55:27;97289.94;;;5.25;73.27
35694;BME280;21812;55.536;37.664;2023-10-09T00:58:05;97243.09;;;5.32;75.26
35694;BME280;21812;55.536;37.664;2023-10-09T01:00:41;97286.94;;;5.72;69.92
35694;BME280;21812;55.536;37.664;2023-10-09T01:03:11;97299.78;;;5.68;72.81
35694;BME280;21812;55.536;37.664;2023-10-09T01:05:58;97293.44;;;5.69;70.66
35694;BME280;21812;55.536;37.664;2023-10-09T01:08:50;97296.56;;;5.41;69.55
35694;BME280;21812;55.536;37.664;2023-10-09T01:11:34;97304.06;;;5.19;69.58
35694;BME280;21812;55.536;37.664;2023-10-09T01:14:00;97298.06;;;4.98;70.16
35694;BME280;21812;55.536;37.664;2023-10-09T01:16:46;97312.75;;;4.94;70.90
35694;BME280;21812;55.536;37.664;2023-10-09T01:19:13;97308.25;;;5.01;73.51
35694;BME280;21812;55.536;37.664;2023-10-09T01:21:45;97320.78;;;5.13;71.26
35694;BME280;21812;55.536;37.664;2023-10-09T01:24:11;97320.78;;;5.13;73.21
35694;BME280;21812;55.536;37.664;2023-10-09T01:26:38;97331.16;;;5.14;74.35
35694;BME280;21812;55.536;37.664;2023-10-09T01:29:09;97326.88;;;5.13;72.43
35694;BME280;21812;55.536;37.664;2023-10-09T01:31:41;97319.94;;;5.44;71.80
35694;BME280;21812;55.536;37.664;2023-10-09T01:34:36;97336.91;;;5.86;72.05
35694;BME280;21812;55.536;37.664;2023-10-09T01:37:17;97301.56;;;5.24;68.08
35694;BME280;21812;55.536;37.664;2023-10-09T01:39:58;97307.69;;;5.18;69.39
35694;BME280;21812;55.536;37.664;2023-10-09T01:42:26;97358.75;;;5.57;72.68
35694;BME280;21812;55.536;37.664;2023-10-09T01:44:57;97364.78;;;6.14;73.56
35694;BME280;21812;55.536;37.664;2023-10-09T01:47:41;97369.44;;;6.37;69.73
35694;BME280;21812;55.536;37.664;2023-10-09T01:50:17;97367.59;;;6.19;68.14
35694;BME280;21812;55.536;37.664;2023-10-09T01:52:48;97383.34;;;6.70;69.24
35694;BME280;21812;55.536;37.664;2023-10-09T01:55:15;97388.13;;;6.79;69.16
35694;BME280;21812;55.536;37.664;2023-10-09T01:57:54;97378.63;;;6.16;66.52
35694;BME280;21812;55.536;37.664;2023-10-09T02:00:19;97386.19;;;5.87;68.63
35694;BME280;21812;55.536;37.664;2023-10-09T02:02:50;97370.59;;;5.79;70.63
35694;BME280;21812;55.536;37.664;2023-10-09T02:05:16;97400.19;;;6.20;69.29
35694;BME280;21812;55.536;37.664;2023-10-09T02:07:42;97391.72;;;6.11;68.77
35694;BME280;21812;55.536;37.664;2023-10-09T02:10:27;97405.91;;;5.98;70.75
35694;BME280;21812;55.536;37.664;2023-10-09T02:12:56;97405.16;;;5.84;74.06
35694;BME280;21812;55.536;37.664;2023-10-09T02:15:29;97427.09;;;5.98;70.34
35694;BME280;21812;55.536;37.664;2023-10-09T02:23:49;97432.56;;;6.65;71.51
35694;BME280;21812;55.536;37.664;2023-10-09T02:26:17;97405.91;;;6.60;68.69
35694;BME280;21812;55.536;37.664;2023-10-09T02:28:58;97435.66;;;6.62;68.27
35694;BME280;21812;55.536;37.664;2023-10-09T02:31:25;97444.28;;;6.58;67.31
35694;BME280;21812;55.536;37.664;2023-10-09T02:34:01;97449.84;;;6.31;66.98
35694;BME280;21812;55.536;37.664;2023-10-09T02:36:34;97443.69;;;6.12;70.72
35694;BME280;21812;55.536;37.664;2023-10-09T02:39:03;97452.06;;;6.09;71.33
35694;BME280;21812;55.536;37.664;2023-10-09T02:41:31;97457.06;;;5.92;70.11
35694;BME280;21812;55.536;37.664;2023-10-09T02:44:00;97430.03;;;5.83;71.33
35694;BME280;21812;55.536;37.664;2023-10-09T02:46:36;97461.25;;;6.06;69.01
35694;BME280;21812;55.536;37.664;2023-10-09T02:49:02;97463.41;;;6.16;69.85
35694;BME280;21812;55.536;37.664;2023-10-09T02:51:32;97471.13;;;6.24;71.38
35694;BME280;21812;55.536;37.664;2023-10-09T02:54:02;97475.09;;;6.09;69.11
35694;BME280;21812;55.536;37.664;2023-10-09T02:56:48;97487.28;;;6.16;69.19
35694;BME280;21812;55.536;37.664;2023-10-09T02:59:21;97488.91;;;6.17;69.67
35694;BME280;21812;55.536;37.664;2023-10-09T03:01:48;97487.16;;;6.04;68.63
35694;BME280;21812;55.536;37.664;2023-10-09T03:04:14;97501.75;;;5.82;70.60
35694;BME280;21812;55.536;37.664;2023-10-09T03:06:41;97505.16;;;5.96;69.60
35694;BME280;21812;55.536;37.664;2023-10-09T03:09:25;97514.13;;;5.56;67.57
35694;BME280;21812;55.536;37.664;2023-10-09T03:11:58;97518.75;;;5.16;68.92
35694;BME280;21812;55.536;37.664;2023-10-09T03:14:30;97522.31;;;4.83;69.67
35694;BME280;21812;55.536;37.664;2023-10-09T03:16:57;97536.41;;;4.63;70.90
35694;BME280;21812;55.536;37.664;2023-10-09T03:19:27;97540.28;;;4.34;72.11
35694;BME280;21812;55.536;37.664;2023-10-09T03:21:57;97545.56;;;4.07;73.11
35694;BME280;21812;55.536;37.664;2023-10-09T03:24:24;97554.88;;;3.97;73.31
35694;BME280;21812;55.536;37.664;2023-10-09T03:26:50;97538.16;;;3.76;73.78
35694;BME280;21812;55.536;37.664;2023-10-09T03:29:22;97551.56;;;3.68;74.66
35694;BME280;21812;55.536;37.664;2023-10-09T03:31:47;97561.69;;;3.71;74.93
35694;BME280;21812;55.536;37.664;2023-10-09T03:34:16;97567.56;;;3.60;75.06
35694;BME280;21812;55.536;37.664;2023-10-09T03:36:42;97556.75;;;3.48;75.49
35694;BME280;21812;55.536;37.664;2023-10-09T03:39:09;97571.41;;;3.57;75.85
35694;BME280;21812;55.536;37.664;2023-10-09T03:41:53;97563.06;;;3.53;75.90
35694;BME280;21812;55.536;37.664;2023-10-09T03:44:25;97575.88;;;3.57;75.77
35694;BME280;21812;55.536;37.664;2023-10-09T03:46:55;97578.34;;;3.58;75.79
35694;BME280;21812;55.536;37.664;2023-10-09T03:49:21;97583.38;;;3.53;75.85
35694;BME280;21812;55.536;37.664;2023-10-09T03:51:52;97577.31;;;3.52;75.91
35694;BME280;21812;55.536;37.664;2023-10-09T03:54:18;97591.72;;;3.57;76.33
35694;BME280;21812;55.536;37.664;2023-10-09T03:56:48;97585.59;;;3.49;76.02
35694;BME280;21812;55.536;37.664;2023-10-09T03:59:21;97605.53;;;3.59;76.13
35694;BME280;21812;55.536;37.664;2023-10-09T04:01:47;97592.09;;;3.53;76.19
35694;BME280;21812;55.536;37.664;2023-10-09T04:04:16;97601.84;;;3.53;76.06
35694;BME280;21812;55.536;37.664;2023-10-09T04:06:41;97601.66;;;3.55;76.39
35694;BME280;21812;55.536;37.664;2023-10-09T04:09:11;97616.91;;;3.59;76.36
35694;BME280;21812;55.536;37.664;2023-10-09T04:11:43;97617.09;;;3.58;76.04
35694;BME280;21812;55.536;37.664;2023-10-09T04:14:10;97610.56;;;3.53;75.76
35694;BME280;21812;55.536;37.664;2023-10-09T04:16:44;97599.53;;;3.37;76.11
35694;BME280;21812;55.536;37.664;2023-10-09T04:19:17;97619.28;;;3.47;76.51
35694;BME280;21812;55.536;37.664;2023-10-09T04:21:48;97630.03;;;3.46;76.30
35694;BME280;21812;55.536;37.664;2023-10-09T04:24:14;97633.28;;;3.48;76.66
35694;BME280;21812;55.536;37.664;2023-10-09T04:26:41;97641.63;;;3.51;76.08
35694;BME280;21812;55.536;37.664;2023-10-09T04:29:11;97648.75;;;3.58;76.33
35694;BME280;21812;55.536;37.664;2023-10-09T04:31:55;97653.81;;;3.52;76.47
35694;BME280;21812;55.536;37.664;2023-10-09T04:34:23;97650.16;;;3.47;76.82
35694;BME280;21812;55.536;37.664;2023-10-09T04:36:50;97656.59;;;3.44;77.02
35694;BME280;21812;55.536;37.664;2023-10-09T04:39:17;97652.34;;;3.43;76.95
35694;BME280;21812;55.536;37.664;2023-10-09T04:41:54;97663.28;;;3.40;77.29
35694;BME280;21812;55.536;37.664;2023-10-09T04:44:40;97658.00;;;3.33;77.57
35694;BME280;21812;55.536;37.664;2023-10-09T04:47:24;97675.66;;;3.40;77.42
35694;BME280;21812;55.536;37.664;2023-10-09T04:49:51;97670.34;;;3.33;77.36
35694;BME280;21812;55.536;37.664;2023-10-09T04:52:26;97677.06;;;3.36;77.59
35694;BME280;21812;55.536;37.664;2023-10-09T04:54:55;97690.28;;;3.42;77.74
35694;BME280;21812;55.536;37.664;2023-10-09T05:02:55;97649.38;;;3.18;77.33
35694;BME280;21812;55.536;37.664;2023-10-09T05:08:17;97706.97;;;3.49;77.47
35694;BME280;21812;55.536;37.664;2023-10-09T05:11:09;97706.72;;;3.38;77.41
35694;BME280;21812;55.536;37.664;2023-10-09T05:13:41;97711.56;;;3.34;77.29
35694;BME280;21812;55.536;37.664;2023-10-09T05:16:18;97680.72;;;3.06;77.27
35694;BME280;21812;55.536;37.664;2023-10-09T05:18:47;97724.78;;;3.41;77.20
35694;BME280;21812;55.536;37.664;2023-10-09T05:21:31;97699.69;;;3.23;77.09
35694;BME280;21812;55.536;37.664;2023-10-09T05:23:59;97726.34;;;3.28;77.49
35694;BME280;21812;55.536;37.664;2023-10-09T05:26:39;97735.91;;;3.36;77.79
35694;BME280;21812;55.536;37.664;2023-10-09T05:32:13;97733.25;;;3.29;77.24
35694;BME280;21812;55.536;37.664;2023-10-09T05:34:44;97741.44;;;3.41;77.82
35694;BME280;21812;55.536;37.664;2023-10-09T05:37:27;97750.34;;;3.40;77.54
35694;BME280;21812;55.536;37.664;2023-10-09T05:40:02;97745.88;;;3.41;77.37
35694;BME280;21812;55.536;37.664;2023-10-09T05:42:35;97749.22;;;3.49;77.47
35694;BME280;21812;55.536;37.664;2023-10-09T05:47:45;97762.06;;;3.59;76.93
35694;BME280;21812;55.536;37.664;2023-10-09T05:50:29;97768.56;;;3.63;76.64
35694;BME280;21812;55.536;37.664;2023-10-09T05:52:56;97762.25;;;3.58;76.74
35694;BME280;21812;55.536;37.664;2023-10-09T05:55:23;97770.78;;;3.60;76.43
35694;BME280;21812;55.536;37.664;2023-10-09T05:57:50;97764.69;;;3.59;76.80
35694;BME280;21812;55.536;37.664;2023-10-09T06:00:23;97774.88;;;3.62;76.62
35694;BME280;21812;55.536;37.664;2023-10-09T06:03:07;97784.84;;;3.67;76.55
35694;BME280;21812;55.536;37.664;2023-10-09T06:06:02;97782.81;;;3.69;76.24
35694;BME280;21812;55.536;37.664;2023-10-09T06:08:30;97807.41;;;3.69;76.05
35694;BME280;21812;55.536;37.664;2023-10-09T06:11:19;97799.69;;;3.68;76.30
35694;BME280;21812;55.536;37.664;2023-10-09T06:14:01;97806.59;;;3.69;76.69
35694;BME280;21812;55.536;37.664;2023-10-09T06:16:36;97802.88;;;3.63;76.52
35694;BME280;21812;55.536;37.664;2023-10-09T06:19:05;97813.88;;;3.67;76.76
35694;BME280;21812;55.536;37.664;2023-10-09T06:21:39;97795.59;;;3.65;76.50
35694;BME280;21812;55.536;37.664;2023-10-09T06:24:07;97823.91;;;3.78;76.44
35694;BME280;21812;55.536;37.664;2023-10-09T06:26:45;97792.66;;;3.53;76.11
35694;BME280;21812;55.536;37.664;2023-10-09T06:29:27;97822.50;;;3.82;76.33
35694;BME280;21812;55.536;37.664;2023-10-09T06:32:05;97815.75;;;3.73;76.07
35694;BME280;21812;55.536;37.664;2023-10-09T06:34:49;97824.97;;;3.84;75.70
35694;BME280;21812;55.536;37.664;2023-10-09T06:37:23;97846.16;;;3.90;75.14
35694;BME280;21812;55.536;37.664;2023-10-09T06:39:56;97840.47;;;3.94;74.83
35694;BME280;21812;55.536;37.664;2023-10-09T06:42:23;97851.47;;;3.97;75.10
35694;BME280;21812;55.536;37.664;2023-10-09T06:45:15;97826.75;;;3.77;75.20
35694;BME280;21812;55.536;37.664;2023-10-09T06:47:49;97820.91;;;3.81;75.12
35694;BME280;21812;55.536;37.664;2023-10-09T06:50:22;97839.56;;;3.80;74.86
35694;BME280;21812;55.536;37.664;2023-10-09T06:52:52;97868.03;;;3.84;75.34
35694;BME280;21812;55.536;37.664;2023-10-09T06:55:36;97886.75;;;3.89;75.37
35694;BME280;21812;55.536;37.664;2023-10-09T06:58:22;97872.56;;;3.90;75.59
35694;BME280;21812;55.536;37.664;2023-10-09T07:01:07;97890.09;;;3.98;75.42
35694;BME280;21812;55.536;37.664;2023-10-09T07:03:55;97885.59;;;3.99;75.70
35694;BME280;21812;55.536;37.664;2023-10-09T07:06:46;97899.69;;;4.06;75.90
35694;BME280;21812;55.536;37.664;2023-10-09T07:09:13;97893.34;;;4.00;75.90
35694;BME280;21812;55.536;37.664;2023-10-09T07:11:44;97895.78;;;4.02;76.12
35694;BME280;21812;55.536;37.664;2023-10-09T07:14:15;97867.81;;;3.79;76.42
35694;BME280;21812;55.536;37.664;2023-10-09T07:17:05;97921.44;;;4.08;76.48
35694;BME280;21812;55.536;37.664;2023-10-09T07:19:54;97917.22;;;4.14;76.55
35694;BME280;21812;55.536;37.664;2023-10-09T07:22:20;97876.44;;;3.95;75.95
35694;BME280;21812;55.536;37.664;2023-10-09T07:24:50;97925.78;;;4.22;76.33
35694;BME280;21812;55.536;37.664;2023-10-09T07:27:30;97928.91;;;4.33;76.72
35694;BME280;21812;55.536;37.664;2023-10-09T07:30:16;97888.78;;;4.16;76.38
35694;BME280;21812;55.536;37.664;2023-10-09T07:35:47;97933.94;;;4.62;75.40
35694;BME280;21812;55.536;37.664;2023-10-09T07:38:22;97926.09;;;4.41;74.72
35694;BME280;21812;55.536;37.664;2023-10-09T07:40:50;97961.97;;;4.50;75.23
35694;BME280;21812;55.536;37.664;2023-10-09T07:43:45;97964.84;;;4.55;74.96
35694;BME280;21812;55.536;37.664;2023-10-09T07:49:03;97962.75;;;4.44;74.07
35694;BME280;21812;55.536;37.664;2023-10-09T07:51:38;97973.31;;;4.44;74.03
35694;BME280;21812;55.536;37.664;2023-10-09T07:54:09;97970.06;;;4.48;73.76
35694;BME280;21812;55.536;37.664;2023-10-09T07:56:41;97989.16;;;4.44;73.85
35694;BME280;21812;55.536;37.664;2023-10-09T07:59:08;97986.75;;;4.49;74.02
35694;BME280;21812;55.536;37.664;2023-10-09T08:01:41;97994.66;;;4.49;73.69
35694;BME280;21812;55.536;37.664;2023-10-09T08:04:23;97990.00;;;4.51;73.95
35694;BME280;21812;55.536;37.664;2023-10-09T08:07:04;97996.13;;;4.52;74.00
35694;BME280;21812;55.536;37.664;2023-10-09T08:09:33;98005.31;;;4.56;74.04
35694;BME280;21812;55.536;37.664;2023-10-09T08:12:22;98003.13;;;4.66;73.62
35694;BME280;21812;55.536;37.664;2023-10-09T08:15:07;98013.03;;;4.57;73.15
35694;BME280;21812;55.536;37.664;2023-10-09T08:17:59;98016.25;;;4.53;73.67
35694;BME280;21812;55.536;37.664;2023-10-09T08:20:30;98018.34;;;4.57;73.40
35694;BME280;21812;55.536;37.664;2023-10-09T08:23:17;98007.06;;;4.48;73.57
35694;BME280;21812;55.536;37.664;2023-10-09T08:26:02;98021.41;;;4.61;73.38
35694;BME280;21812;55.536;37.664;2023-10-09T08:28:42;98020.63;;;4.67;73.57
35694;BME280;21812;55.536;37.664;2023-10-09T08:31:12;98014.81;;;4.78;73.18
35694;BME280;21812;55.536;37.664;2023-10-09T08:33:46;98004.78;;;4.74;72.58
35694;BME280;21812;55.536;37.664;2023-10-09T08:36:24;98035.78;;;4.80;72.11
35694;BME280;21812;55.536;37.664;2023-10-09T08:38:57;98045.94;;;4.83;72.35
35694;BME280;21812;55.536;37.664;2023-10-09T08:41:39;98026.44;;;4.84;72.42
35694;BME280;21812;55.536;37.664;2023-10-09T08:44:06;98044.16;;;4.90;72.07
35694;BME280;21812;55.536;37.664;2023-10-09T08:46:32;98040.28;;;4.86;71.61
35694;BME280;21812;55.536;37.664;2023-10-09T08:48:59;98051.31;;;4.96;71.24
35694;BME280;21812;55.536;37.664;2023-10-09T08:51:27;98047.66;;;4.97;71.35
35694;BME280;21812;55.536;37.664;2023-10-09T08:53:54;98056.06;;;5.07;71.03
35694;BME280;21812;55.536;37.664;2023-10-09T08:56:21;98050.84;;;5.21;71.17
35694;BME280;21812;55.536;37.664;2023-10-09T08:58:55;98047.41;;;5.27;70.79
35694;BME280;21812;55.536;37.664;2023-10-09T09:01:22;98063.94;;;5.42;69.94
35694;BME280;21812;55.536;37.664;2023-10-09T09:03:52;98058.47;;;5.44;68.88
35694;BME280;21812;55.536;37.664;2023-10-09T09:06:21;98048.31;;;5.47;69.01
35694;BME280;21812;55.536;37.664;2023-10-09T09:08:50;98069.66;;;5.46;68.32
35694;BME280;21812;55.536;37.664;2023-10-09T09:11:20;98070.09;;;5.49;68.91
35694;BME280;21812;55.536;37.664;2023-10-09T09:16:21;98040.63;;;5.18;68.80
35694;BME280;21812;55.536;37.664;2023-10-09T09:18:58;98000.19;;;4.89;69.83
35694;BME280;21812;55.536;37.664;2023-10-09T09:21:32;98084.50;;;5.40;69.37
35694;BME280;21812;55.536;37.664;2023-10-09T09:24:08;98083.91;;;5.38;69.63
35694;BME280;21812;55.536;37.664;2023-10-09T09:27:01;98087.81;;;5.49;69.79
35694;BME280;21812;55.536;37.664;2023-10-09T09:29:45;98075.44;;;5.56;69.76
35694;BME280;21812;55.536;37.664;2023-10-09T09:32:33;98074.25;;;5.65;69.68
35694;BME280;21812;55.536;37.664;2023-10-09T09:35:02;98086.50;;;5.73;69.82
35694;BME280;21812;55.536;37.664;2023-10-09T09:37:33;98099.75;;;5.73;69.10
35694;BME280;21812;55.536;37.664;2023-10-09T09:40:08;98087.06;;;5.62;69.10
35694;BME280;21812;55.536;37.664;2023-10-09T09:42:56;98084.00;;;5.65;69.13
35694;BME280;21812;55.536;37.664;2023-10-09T09:45:22;98107.69;;;5.80;69.81
35694;BME280;21812;55.536;37.664;2023-10-09T09:47:50;98098.91;;;5.73;68.39
35694;BME280;21812;55.536;37.664;2023-10-09T09:50:20;98106.22;;;5.71;68.96
35694;BME280;21812;55.536;37.664;2023-10-09T09:52:53;98115.25;;;5.83;68.77
35694;BME280;21812;55.536;37.664;2023-10-09T09:55:20;98108.31;;;5.75;68.08
35694;BME280;21812;55.536;37.664;2023-10-09T09:57:57;98109.28;;;5.67;68.33
35694;BME280;21812;55.536;37.664;2023-10-09T10:00:29;98114.41;;;5.76;68.71
35694;BME280;21812;55.536;37.664;2023-10-09T10:03:25;98078.69;;;5.58;68.36
35694;BME280;21812;55.536;37.664;2023-10-09T10:05:52;98122.59;;;5.81;68.34
35694;BME280;21812;55.536;37.664;2023-10-09T10:08:22;98118.91;;;5.75;68.63
35694;BME280;21812;55.536;37.664;2023-10-09T10:10:56;98130.69;;;5.73;69.00
35694;BME280;21812;55.536;37.664;2023-10-09T10:16:12;98126.00;;;5.68;68.67
35694;BME280;21812;55.536;37.664;2023-10-09T10:21:40;98125.84;;;5.83;69.13
35694;BME280;21812;55.536;37.664;2023-10-09T10:35:36;98149.88;;;5.81;68.41
35694;BME280;21812;55.536;37.664;2023-10-09T10:38:31;98154.31;;;5.74;69.06
35694;BME280;21812;55.536;37.664;2023-10-09T10:43:37;98156.41;;;5.79;69.67
35694;BME280;21812;55.536;37.664;2023-10-09T10:46:22;98173.50;;;5.76;68.69
35694;BME280;21812;55.536;37.664;2023-10-09T10:49:01;98167.75;;;5.73;68.46
35694;BME280;21812;55.536;37.664;2023-10-09T10:51:41;98177.94;;;5.69;67.64
35694;BME280;21812;55.536;37.664;2023-10-09T10:54:21;98140.31;;;5.39;67.65
35694;BME280;21812;55.536;37.664;2023-10-09T10:57:01;98171.38;;;5.58;67.72
35694;BME280;21812;55.536;37.664;2023-10-09T10:59:39;98148.88;;;5.41;67.88
35694;BME280;21812;55.536;37.664;2023-10-09T11:02:10;98182.41;;;5.62;68.43
35694;BME280;21812;55.536;37.664;2023-10-09T11:04:36;98179.53;;;5.63;68.55
35694;BME280;21812;55.536;37.664;2023-10-09T11:07:03;98181.91;;;5.52;68.09
35694;BME280;21812;55.536;37.664;2023-10-09T11:09:48;98196.25;;;5.64;67.83
35694;BME280;21812;55.536;37.664;2023-10-09T11:15:06;98196.09;;;5.72;67.90
35694;BME280;21812;55.536;37.664;2023-10-09T11:17:37;98192.66;;;5.78;67.32
35694;BME280;21812;55.536;37.664;2023-10-09T11:20:06;98193.44;;;5.72;67.87
35694;BME280;21812;55.536;37.664;2023-10-09T11:22:57;98179.94;;;5.60;66.80
35694;BME280;21812;55.536;37.664;2023-10-09T11:25:39;98190.13;;;5.63;66.44
35694;BME280;21812;55.536;37.664;2023-10-09T11:28:17;98197.69;;;5.66;67.12
35694;BME280;21812;55.536;37.664;2023-10-09T11:31:09;98213.47;;;5.81;66.65
35694;BME280;21812;55.536;37.664;2023-10-09T11:33:47;98214.00;;;5.70;67.32
35694;BME280;21812;55.536;37.664;2023-10-09T11:36:22;98226.38;;;5.63;68.64
35694;BME280;21812;55.536;37.664;2023-10-09T11:38:58;98224.69;;;5.48;68.72
35694;BME280;21812;55.536;37.664;2023-10-09T11:41:44;98238.50;;;5.44;69.31
35694;BME280;21812;55.536;37.664;2023-10-09T11:44:11;98249.50;;;5.47;69.26
35694;BME280;21812;55.536;37.664;2023-10-09T11:46:58;98244.84;;;5.49;70.15
35694;BME280;21812;55.536;37.664;2023-10-09T11:49:24;98259.09;;;5.48;69.93
35694;BME280;21812;55.536;37.664;2023-10-09T11:52:07;98251.78;;;5.51;69.94
35694;BME280;21812;55.536;37.664;2023-10-09T11:54:40;98260.09;;;5.47;70.65
35694;BME280;21812;55.536;37.664;2023-10-09T11:57:07;98256.84;;;5.45;70.99
35694;BME280;21812;55.536;37.664;2023-10-09T11:59:34;98254.63;;;5.49;71.49
35694;BME280;21812;55.536;37.664;2023-10-09T12:02:04;98272.19;;;5.57;71.40
35694;BME280;21812;55.536;37.664;2023-10-09T12:04:30;98260.72;;;5.49;71.61
35694;BME280;21812;55.536;37.664;2023-10-09T12:06:57;98275.63;;;5.51;71.73
35694;BME280;21812;55.536;37.664;2023-10-09T12:09:32;98283.59;;;5.57;72.05
35694;BME280;21812;55.536;37.664;2023-10-09T12:12:04;98270.13;;;5.52;72.38
35694;BME280;21812;55.536;37.664;2023-10-09T12:14:31;98278.38;;;5.42;71.62
35694;BME280;21812;55.536;37.664;2023-10-09T12:17:01;98280.47;;;5.47;71.70
35694;BME280;21812;55.536;37.664;2023-10-09T12:19:36;98284.97;;;5.46;71.40
35694;BME280;21812;55.536;37.664;2023-10-09T12:22:03;98288.84;;;5.51;71.19
35694;BME280;21812;55.536;37.664;2023-10-09T12:24:33;98293.53;;;5.48;71.14
35694;BME280;21812;55.536;37.664;2023-10-09T12:27:00;98302.13;;;5.57;71.58
35694;BME280;21812;55.536;37.664;2023-10-09T12:29:26;98290.88;;;5.48;71.24
35694;BME280;21812;55.536;37.664;2023-10-09T12:31:56;98303.72;;;5.52;71.30
35694;BME280;21812;55.536;37.664;2023-10-09T12:34:25;98304.13;;;5.48;71.70
35694;BME280;21812;55.536;37.664;2023-10-09T12:36:56;98310.22;;;5.49;71.93
35694;BME280;21812;55.536;37.664;2023-10-09T12:39:27;98311.19;;;5.41;72.22
35694;BME280;21812;55.536;37.664;2023-10-09T12:42:00;98312.75;;;5.36;72.64
35694;BME280;21812;55.536;37.664;2023-10-09T12:44:35;98336.78;;;5.34;72.88
35694;BME280;21812;55.536;37.664;2023-10-09T12:47:08;98336.94;;;5.33;73.69
35694;BME280;21812;55.536;37.664;2023-10-09T12:49:37;98331.72;;;5.39;73.70
35694;BME280;21812;55.536;37.664;2023-10-09T12:52:09;98344.72;;;5.34;73.35
35694;BME280;21812;55.536;37.664;2023-10-09T12:54:43;98352.38;;;5.29;73.49
35694;BME280;21812;55.536;37.664;2023-10-09T12:57:12;98342.97;;;5.20;73.42
35694;BME280;21812;55.536;37.664;2023-10-09T12:59:40;98355.75;;;5.16;73.73
35694;BME280;21812;55.536;37.664;2023-10-09T13:02:15;98353.28;;;5.15;73.80
35694;BME280;21812;55.536;37.664;2023-10-09T13:04:54;98345.34;;;5.15;73.88
35694;BME280;21812;55.536;37.664;2023-10-09T13:07:20;98351.41;;;5.30;73.74
35694;BME280;21812;55.536;37.664;2023-10-09T13:09:48;98357.56;;;5.37;73.13
35694;BME280;21812;55.536;37.664;2023-10-09T13:12:32;98360.22;;;5.37;72.97
35694;BME280;21812;55.536;37.664;2023-10-09T13:14:58;98358.13;;;5.33;73.27
35694;BME280;21812;55.536;37.664;2023-10-09T13:17:24;98335.22;;;5.18;73.14
35694;BME280;21812;55.536;37.664;2023-10-09T13:19:53;98362.63;;;5.32;73.02
35694;BME280;21812;55.536;37.664;2023-10-09T13:22:20;98373.28;;;5.39;73.09
35694;BME280;21812;55.536;37.664;2023-10-09T13:24:48;98346.88;;;5.24;72.63
35694;BME280;21812;55.536;37.664;2023-10-09T13:27:15;98379.06;;;5.49;71.90
35694;BME280;21812;55.536;37.664;2023-10-09T13:29:47;98370.19;;;5.35;71.99
35694;BME280;21812;55.536;37.664;2023-10-09T13:32:13;98386.69;;;5.37;72.22
35694;BME280;21812;55.536;37.664;2023-10-09T13:34:41;98391.47;;;5.27;72.08
35694;BME280;21812;55.536;37.664;2023-10-09T13:37:14;98392.97;;;5.15;72.49
35694;BME280;21812;55.536;37.664;2023-10-09T13:39:44;98391.78;;;5.17;73.03
35694;BME280;21812;55.536;37.664;2023-10-09T13:42:21;98396.25;;;5.17;73.78
35694;BME280;21812;55.536;37.664;2023-10-09T13:44:52;98394.16;;;5.12;73.71
35694;BME280;21812;55.536;37.664;2023-10-09T13:47:20;98395.06;;;5.19;74.09
35694;BME280;21812;55.536;37.664;2023-10-09T13:49:47;98402.25;;;5.25;73.91
35694;BME280;21812;55.536;37.664;2023-10-09T13:52:19;98399.03;;;5.30;73.33
35694;BME280;21812;55.536;37.664;2023-10-09T13:54:47;98411.19;;;5.24;73.63
35694;BME280;21812;55.536;37.664;2023-10-09T13:57:15;98400.78;;;5.23;72.95
35694;BME280;21812;55.536;37.664;2023-10-09T13:59:41;98416.78;;;5.15;73.38
35694;BME280;21812;55.536;37.664;2023-10-09T14:02:17;98415.31;;;5.12;73.83
35694;BME280;21812;55.536;37.664;2023-10-09T14:04:45;98420.38;;;5.07;73.66
35694;BME280;21812;55.536;37.664;2023-10-09T14:07:12;98426.59;;;4.99;73.74
35694;BME280;21812;55.536;37.664;2023-10-09T14:09:43;98421.56;;;5.04;74.17
35694;BME280;21812;55.536;37.664;2023-10-09T14:12:09;98421.66;;;4.96;74.39
35694;BME280;21812;55.536;37.664;2023-10-09T14:17:17;98438.56;;;4.95;74.95
35694;BME280;21812;55.536;37.664;2023-10-09T14:19:49;98457.03;;;5.10;74.65
35694;BME280;21812;55.536;37.664;2023-10-09T14:22:17;98454.31;;;5.03;74.39
35694;BME280;21812;55.536;37.664;2023-10-09T14:24:47;98426.28;;;4.73;74.36
35694;BME280;21812;55.536;37.664;2023-10-09T14:27:14;98457.16;;;4.87;74.58